To NAV CANADA Home Page Login to a new session Search on AWWS site Feedback and Comments Disclaimer Vers la page française équivalente Tips FAQ What's new on the site To the Forecasts and Observations / NOTAM section To "File a Flight Plan" website Publications and other links Update of the User's profile FIC Telephone Numbers My Weather Data Folder Route Weather Data Regional Weather Data Local Weather Data To the Forecasts and Observations / NOTAM section
Request Generated 03/31/2015 at 03:13:24 UTC . Weather information available at that time is displayed.

METAR/TAF

LONDON/ON    

METAR CYXU 310300Z 33004KT 15SM SKC M01/M05 A2994 RMK SLP146=
METAR CYXU 310200Z 32005KT 15SM SKC 00/M05 A2994 RMK SLP147=
METAR CYXU 310100Z 33007KT 15SM SKC 01/M05 A2992 RMK SLP143=

TAF CYXU 302340Z 3100/3124 34012KT P6SM FEW020
BECMG 3102/3104 VRB03KT
FM310600 VRB03KT P6SM BKN040 OVC200
FM311000 VRB03KT 3SM -SN BKN020 OVC050
FM311600 01006KT P6SM -SNRA SCT020 BKN060
FM312100 30008KT P6SM SCT050
RMK NXT FCST BY 310600Z=
Your time UTC time
Weather data provided by Environment Canada and NAV CANADA